Time;durP1;ratioP1;P1;durP2;ratioP2;P2;SDS_P1;SDS_P2;PMS_P1;PMS_P2;Temp;Humidity;BMP_temperature;BMP_pressure;BME280_temperature;BME280_humidity;BME280_pressure;Samples;Min_cycle;Max_cycle;Signal;HPM_P1;HPM_P2
2021/05/18 00:08:11;;;;;;;14.9;9.6;;;;;;;9.88;100;97392.28;;;;
2021/05/18 00:18:08;;;;;;;12.4;8.6;;;;;;;9.84;100;97402.13;;;;
2021/05/18 00:28:06;;;;;;;10.6;8.1;;;;;;;9.72;100;97404.79;;;;
2021/05/18 00:38:05;;;;;;;12.2;8.5;;;;;;;9.69;100;97416.98;;;;
2021/05/18 00:48:04;;;;;;;11;8.5;;;;;;;9.54;100;97412.22;;;;
2021/05/18 01:08:02;;;;;;;13.5;9.1;;;;;;;9.4;100;97422.45;;;;
2021/05/18 01:18:00;;;;;;;9.2;6.8;;;;;;;9.37;100;97428.48;;;;
2021/05/18 01:27:58;;;;;;;9.2;6.4;;;;;;;9.38;100;97443.48;;;;
2021/05/18 01:37:57;;;;;;;10.1;7.1;;;;;;;9.35;100;97426.11;;;;
2021/05/18 01:47:56;;;;;;;8.8;6;;;;;;;9.32;100;97434.05;;;;
2021/05/18 01:57:54;;;;;;;10.4;6.9;;;;;;;9.24;100;97442.95;;;;
2021/05/18 02:07:53;;;;;;;13.2;7.5;;;;;;;9.27;100;97463.8;;;;
2021/05/18 02:17:56;;;;;;;10.4;6.7;;;;;;;9.24;100;97472.52;;;;
2021/05/18 02:27:50;;;;;;;16.7;8.9;;;;;;;9.2;100;97482.38;;;;
2021/05/18 02:37:49;;;;;;;10.7;7.3;;;;;;;9.22;100;97491.67;;;;
2021/05/18 02:57:48;;;;;;;10.7;8.2;;;;;;;9.22;100;97513.19;;;;
2021/05/18 03:07:45;;;;;;;12.8;8.5;;;;;;;9.18;100;97512.25;;;;
2021/05/18 03:17:43;;;;;;;11;7.8;;;;;;;9.24;100;97532.45;;;;
2021/05/18 03:27:42;;;;;;;11.8;9.1;;;;;;;9.28;100;97554.1;;;;
2021/05/18 03:37:50;;;;;;;11.9;7.2;;;;;;;9.39;100;97552.63;;;;
2021/05/18 04:17:38;;;;;;;9.6;6.9;;;;;;;9.52;100;97591.95;;;;
2021/05/18 05:07:34;;;;;;;8.3;7;;;;;;;9.81;100;97610.78;;;;
2021/05/18 05:17:28;;;;;;;9.6;7.8;;;;;;;9.92;100;97616.58;;;;
2021/05/18 05:27:27;;;;;;;14.7;8.7;;;;;;;9.93;100;97620.83;;;;
2021/05/18 05:37:25;;;;;;;10.3;7.6;;;;;;;9.96;100;97636.34;;;;
2021/05/18 05:47:24;;;;;;;10;8.9;;;;;;;9.97;100;97633.31;;;;
2021/05/18 05:57:23;;;;;;;10.7;8.7;;;;;;;10.21;100;97634.6;;;;
2021/05/18 06:07:22;;;;;;;14;6.1;;;;;;;10.18;100;97651.42;;;;
2021/05/18 06:17:53;;;;;;;10.2;7.2;;;;;;;10.17;100;97657.94;;;;
2021/05/18 06:47:31;;;;;;;8.9;7.1;;;;;;;10.61;100;97684.23;;;;
2021/05/18 06:57:16;;;;;;;11.6;9.1;;;;;;;10.81;100;97699.59;;;;
2021/05/18 07:07:19;;;;;;;7.7;5.6;;;;;;;10.62;100;97699.25;;;;
2021/05/18 07:17:14;;;;;;;7.3;6.4;;;;;;;10.8;100;97697.21;;;;
2021/05/18 07:27:13;;;;;;;10.7;6.7;;;;;;;11.01;100;97685.28;;;;
2021/05/18 07:37:12;;;;;;;10.3;7.6;;;;;;;11.44;100;97700.25;;;;
2021/05/18 07:47:14;;;;;;;10.3;7.1;;;;;;;11.31;100;97710.23;;;;
2021/05/18 08:07:08;;;;;;;8.8;6.2;;;;;;;11.46;100;97720.37;;;;
2021/05/18 10:27:12;;;;;;;9.4;6.8;;;;;;;13.57;100;97813.8;;;;
2021/05/18 10:36:54;;;;;;;9.3;7.7;;;;;;;13.56;100;97817.64;;;;
2021/05/18 10:46:53;;;;;;;9.6;7.2;;;;;;;13.08;100;97824.73;;;;
2021/05/18 10:57:16;;;;;;;11.1;6.7;;;;;;;13.02;100;97826.11;;;;
2021/05/18 11:06:52;;;;;;;15.8;8.8;;;;;;;12.78;100;97828.86;;;;
2021/05/18 11:16:51;;;;;;;9;7.7;;;;;;;12.55;100;97850.17;;;;
2021/05/18 11:26:51;;;;;;;9.2;7.6;;;;;;;12.5;100;97844.19;;;;
2021/05/18 11:36:50;;;;;;;13.6;6.9;;;;;;;12.56;100;97842.86;;;;
2021/05/18 11:46:49;;;;;;;7.3;5.8;;;;;;;12.38;100;97852.3;;;;
2021/05/18 11:56:48;;;;;;;8.7;6.5;;;;;;;12.81;100;97838.98;;;;
2021/05/18 12:06:48;;;;;;;8.3;5.7;;;;;;;13.49;100;97850.72;;;;
2021/05/18 12:16:47;;;;;;;9;6.8;;;;;;;14.19;100;97842.92;;;;
2021/05/18 12:26:48;;;;;;;9.9;6.7;;;;;;;14.58;100;97855.52;;;;
2021/05/18 12:36:48;;;;;;;13.4;6.2;;;;;;;14.8;100;97856.82;;;;
2021/05/18 12:46:53;;;;;;;7.7;5.1;;;;;;;15.37;100;97860.8;;;;
2021/05/18 12:56:45;;;;;;;8;5;;;;;;;15.59;100;97866.33;;;;
2021/05/18 13:06:46;;;;;;;6.2;4.4;;;;;;;15.44;100;97866.38;;;;
2021/05/18 13:16:44;;;;;;;5.9;3.9;;;;;;;15.92;100;97862.31;;;;
2021/05/18 13:26:44;;;;;;;6.5;3.6;;;;;;;16.03;100;97855.94;;;;
2021/05/18 13:36:44;;;;;;;5.3;3.6;;;;;;;16.16;100;97847.59;;;;
2021/05/18 13:46:44;;;;;;;4.6;3.1;;;;;;;15.94;100;97862.73;;;;
2021/05/18 13:56:44;;;;;;;7;4.7;;;;;;;15.25;100;97869.84;;;;
2021/05/18 14:07:01;;;;;;;5.5;3.9;;;;;;;15.13;100;97876.17;;;;
2021/05/18 14:16:42;;;;;;;6.4;4.7;;;;;;;16;100;97872.94;;;;
2021/05/18 14:26:41;;;;;;;6.3;4.1;;;;;;;15.81;100;97870.26;;;;
2021/05/18 14:36:41;;;;;;;7.2;4.7;;;;;;;15.55;100;97862.75;;;;
2021/05/18 14:46:48;;;;;;;6.6;4.6;;;;;;;16.35;100;97858.41;;;;
2021/05/18 14:56:40;;;;;;;7.5;4.2;;;;;;;17.45;100;97858.17;;;;
2021/05/18 15:06:41;;;;;;;4.9;2.7;;;;;;;19.33;95.92676;97849.8;;;;
2021/05/18 15:16:40;;;;;;;4.8;1.9;;;;;;;21.1;81.49902;97878.36;;;;
2021/05/18 15:26:40;;;;;;;6.1;3.9;;;;;;;21.88;81.29297;97856.95;;;;
2021/05/18 15:36:40;;;;;;;4.8;2.7;;;;;;;22.34;76.98633;97866.91;;;;
2021/05/18 15:46:41;;;;;;;5.4;3;;;;;;;22.33;76.90332;97868.88;;;;
2021/05/18 15:56:42;;;;;;;5.1;2.2;;;;;;;21.63;76.27344;97869.2;;;;
2021/05/18 16:06:43;;;;;;;4.6;1.5;;;;;;;20.15;77.15332;97879.03;;;;
2021/05/18 16:16:46;;;;;;;7.8;3.2;;;;;;;19.37;78.95215;97866.97;;;;
2021/05/18 16:26:44;;;;;;;2.7;1.1;;;;;;;15.48;90.20703;97899.83;;;;
2021/05/18 16:36:43;;;;;;;5.1;1.9;;;;;;;14.05;100;97900.24;;;;
2021/05/18 16:46:43;;;;;;;6.3;2.1;;;;;;;14.33;100;97918.38;;;;
2021/05/18 16:56:43;;;;;;;2.8;1.4;;;;;;;16.43;97.4209;97949.86;;;;
2021/05/18 17:06:43;;;;;;;5.3;2.4;;;;;;;16.08;96.60645;97942.61;;;;
2021/05/18 17:16:42;;;;;;;4.3;2.2;;;;;;;14.95;100;97942.05;;;;
2021/05/18 17:26:42;;;;;;;4.3;2.2;;;;;;;14.19;100;97953.23;;;;
2021/05/18 17:36:41;;;;;;;5.3;3.1;;;;;;;13.49;100;97950.88;;;;
2021/05/18 17:46:40;;;;;;;5.8;3.4;;;;;;;12.87;100;97964.76;;;;
2021/05/18 17:56:40;;;;;;;9;4.1;;;;;;;12.77;100;97959;;;;
2021/05/18 18:06:39;;;;;;;12.5;8.7;;;;;;;12.38;100;97963.09;;;;
2021/05/18 18:16:39;;;;;;;32.2;22.1;;;;;;;12.31;100;97968.25;;;;
2021/05/18 18:26:39;;;;;;;7.4;5.8;;;;;;;11.98;100;97970.93;;;;
2021/05/18 18:36:42;;;;;;;23.5;12.4;;;;;;;11.69;100;97985.3;;;;
2021/05/18 18:46:37;;;;;;;9;7.4;;;;;;;11.61;100;98005.82;;;;
2021/05/18 18:56:35;;;;;;;19.3;10.7;;;;;;;11.64;100;98015.16;;;;
2021/05/18 19:06:37;;;;;;;13.9;6.6;;;;;;;11.59;100;98018.07;;;;
2021/05/18 19:16:40;;;;;;;19.6;12.6;;;;;;;11.55;100;98022.53;;;;
2021/05/18 19:26:32;;;;;;;12.1;9.1;;;;;;;11.48;100;98027.66;;;;
2021/05/18 19:56:35;;;;;;;10;6.7;;;;;;;11.35;100;98032.16;;;;
2021/05/18 20:26:27;;;;;;;13.9;10;;;;;;;11.16;100;98037.19;;;;
2021/05/18 20:46:25;;;;;;;13.9;8.6;;;;;;;10.98;100;98052.64;;;;
2021/05/18 20:56:24;;;;;;;15.1;11;;;;;;;10.9;100;98056.14;;;;
2021/05/18 21:06:24;;;;;;;14.2;9.5;;;;;;;10.8;100;98056.49;;;;
2021/05/18 21:16:22;;;;;;;17.8;10.7;;;;;;;10.73;100;98069.67;;;;
2021/05/18 21:26:21;;;;;;;13.6;10.9;;;;;;;10.68;100;98072.55;;;;
2021/05/18 21:36:20;;;;;;;17.4;12.8;;;;;;;10.59;100;98075.25;;;;
2021/05/18 21:46:18;;;;;;;13.6;10.6;;;;;;;10.48;100;98062.45;;;;
2021/05/18 21:56:17;;;;;;;14.7;9.1;;;;;;;10.41;100;98059.44;;;;
2021/05/18 22:06:16;;;;;;;12.1;8.6;;;;;;;10.31;100;98071.31;;;;
2021/05/18 22:16:39;;;;;;;9.6;7.1;;;;;;;10.16;100;98074.5;;;;
2021/05/18 22:26:14;;;;;;;9.6;7.5;;;;;;;9.97;100;98071.28;;;;
2021/05/18 22:36:13;;;;;;;9.1;7.6;;;;;;;9.77;100;98056.55;;;;
2021/05/18 22:46:12;;;;;;;8.9;6.9;;;;;;;9.69;100;98060;;;;
2021/05/18 22:56:10;;;;;;;10.2;8.4;;;;;;;9.63;100;98050.51;;;;
2021/05/18 23:06:09;;;;;;;9.3;7.4;;;;;;;9.55;100;98059.34;;;;
2021/05/18 23:16:11;;;;;;;11.7;7.7;;;;;;;9.52;100;98052.7;;;;
2021/05/18 23:26:07;;;;;;;9;6;;;;;;;9.54;100;98065.84;;;;
2021/05/18 23:36:06;;;;;;;7.6;6.1;;;;;;;9.5;100;98065.68;;;;
2021/05/18 23:46:04;;;;;;;9.3;6.4;;;;;;;9.39;100;98063.58;;;;
2021/05/18 23:56:03;;;;;;;9.9;7.1;;;;;;;9.23;100;98065.92;;;;
